CheckWX is a tool to help pilots better visualize weather data.  It is not intended as a substitute for an official pre-flight weather briefing.

09:15:24 UTC

CYQY TAF
Sydney / J.A. Douglas McCurdy Airport
Sydney, Canada
TAF CYQY 250538Z 2506/2518 02010KT P6SM SCT020 TEMPO 2506/2512 BKN020 FM251200 03010KT P6SM BKN030 BECMG 2515/2517 05005KT RMK NXT FCST BY 251200Z

Aug-25@
06:00 UTC

Aug-25 @ 06:00 UTC

Aug-25@
12:00 UTC

Aug-25 @ 12:00 UTC

TAF CYQY 250538Z 2506/2518 02010KT P6SM SCT020
Wind
  • 020° at 10 KTS
Cloud Levels
  • Scattered at 2,000' AGL

Aug-25@
06:00 UTC

Aug-25 @ 06:00 UTC

Aug-25@
12:00 UTC

Aug-25 @ 12:00 UTC

TEMPO 2506/2512 BKN020

Temporary

Temporary Changes expected for less than half the time period

Cloud Levels
  • Broken at 2,000' AGL

Aug-25@
12:00 UTC

Aug-25 @ 12:00 UTC

Aug-25@
15:00 UTC

Aug-25 @ 15:00 UTC

FM251200 03010KT P6SM BKN030

From

From Standard forecast or significant change

Wind
  • 030° at 10 KTS
Cloud Levels
  • Broken at 3,000' AGL

Aug-25@
15:00 UTC

Aug-25 @ 15:00 UTC

Aug-25@
18:00 UTC

Aug-25 @ 18:00 UTC

BECMG 2515/2517 05005KT RMK NXT FCST BY 251200Z

Becoming

Becoming Conditions expected by Sun, Aug 25, 2019 @ 17:00 UTC

Wind
  • 050° at 5 KTS
Cloud Levels
  • Broken at 3,000' AGL